Time;durP1;ratioP1;P1;durP2;ratioP2;P2;SDS_P1;SDS_P2;PMS_P1;PMS_P2;Temp;Humidity;BMP_temperature;BMP_pressure;BME280_temperature;BME280_humidity;BME280_pressure;Samples;Min_cycle;Max_cycle;Signal;HPM_P1;HPM_P2
2023/03/18 00:00:48;;;;;;;29.58;19.20;;;10.50;99.90;;;;;;4955682;28;20043;-80
2023/03/18 00:03:14;;;;;;;47.28;33.15;;;10.50;99.90;;;;;;4971114;28;20466;-81
2023/03/18 00:05:40;;;;;;;74.22;55.25;;;10.50;99.90;;;;;;4953775;28;20475;-80
2023/03/18 00:08:06;;;;;;;91.38;63.72;;;10.60;99.90;;;;;;4939017;28;20082;-81
2023/03/18 00:10:33;;;;;;;91.18;66.95;;;10.60;99.90;;;;;;4938378;28;20101;-81
2023/03/18 00:13:00;;;;;;;51.67;39.22;;;10.70;99.90;;;;;;4955636;28;20053;-80
2023/03/18 00:15:26;;;;;;;23.92;15.75;;;10.60;99.90;;;;;;4940020;28;20051;-81
2023/03/18 00:17:53;;;;;;;40.38;10.80;;;10.70;99.90;;;;;;4954707;28;20098;-80
2023/03/18 00:20:27;;;;;;;13.73;9.52;;;10.70;99.90;;;;;;4953858;28;20051;-81
2023/03/18 00:22:54;;;;;;;18.33;9.57;;;10.70;99.90;;;;;;4955514;28;20053;-81
2023/03/18 00:25:20;;;;;;;14.85;9.50;;;10.70;99.90;;;;;;4937813;28;20054;-81
2023/03/18 00:27:46;;;;;;;18.05;11.32;;;10.70;99.90;;;;;;4939185;28;20046;-81
2023/03/18 00:30:12;;;;;;;24.88;13.20;;;10.80;99.90;;;;;;4970537;28;20093;-81
2023/03/18 00:32:38;;;;;;;26.83;16.35;;;10.80;99.90;;;;;;4938261;28;20047;-81
2023/03/18 00:35:04;;;;;;;43.97;30.45;;;10.80;99.90;;;;;;4954089;28;20129;-81
2023/03/18 00:37:32;;;;;;;55.47;38.92;;;10.70;99.90;;;;;;4971323;28;20051;-81
2023/03/18 00:40:04;;;;;;;56.70;42.05;;;10.70;99.90;;;;;;4938587;28;20056;-81
2023/03/18 00:42:37;;;;;;;43.67;30.73;;;10.70;99.90;;;;;;4939293;28;20047;-81
2023/03/18 00:45:05;;;;;;;51.50;34.85;;;10.70;99.90;;;;;;4938091;28;20485;-81
2023/03/18 00:47:31;;;;;;;34.25;24.05;;;10.60;99.90;;;;;;4954470;28;20042;-81
2023/03/18 00:49:57;;;;;;;36.38;26.38;;;10.70;99.90;;;;;;4953948;28;20047;-81
2023/03/18 00:52:23;;;;;;;40.97;27.70;;;10.70;99.90;;;;;;4970703;28;20046;-81
2023/03/18 00:54:49;;;;;;;47.03;30.45;;;10.60;99.90;;;;;;4970071;28;20113;-81
2023/03/18 00:57:14;;;;;;;38.80;27.27;;;10.60;99.90;;;;;;4938673;28;20062;-80
2023/03/18 00:59:40;;;;;;;29.77;19.98;;;10.50;99.90;;;;;;4969934;28;20491;-81
2023/03/18 01:02:06;;;;;;;22.20;13.38;;;10.50;99.90;;;;;;4970576;28;20153;-81
2023/03/18 01:04:32;;;;;;;15.15;10.95;;;10.40;99.90;;;;;;4969323;28;20443;-80
2023/03/18 01:06:58;;;;;;;18.15;10.70;;;10.40;99.90;;;;;;4953311;28;20054;-80
2023/03/18 01:09:24;;;;;;;15.68;10.68;;;10.30;99.90;;;;;;4954166;28;20442;-81
2023/03/18 01:11:50;;;;;;;17.20;10.30;;;10.20;99.90;;;;;;4938448;28;20043;-81
2023/03/18 01:14:15;;;;;;;16.65;10.50;;;10.20;99.90;;;;;;4969710;28;20488;-81
2023/03/18 01:16:42;;;;;;;15.50;10.25;;;10.10;99.90;;;;;;4969978;28;20581;-81
2023/03/18 01:19:08;;;;;;;15.73;10.73;;;10.10;99.90;;;;;;4970296;28;20046;-81
2023/03/18 01:21:34;;;;;;;21.25;11.32;;;10.10;99.90;;;;;;4968360;28;20137;-80
2023/03/18 01:23:59;;;;;;;21.48;10.95;;;10.00;99.90;;;;;;4970611;28;20490;-80
2023/03/18 01:26:26;;;;;;;20.48;11.50;;;9.90;99.90;;;;;;4954078;28;20104;-81
2023/03/18 01:28:52;;;;;;;17.88;11.43;;;9.90;99.90;;;;;;4969681;28;20410;-80
2023/03/18 01:31:18;;;;;;;22.13;11.88;;;9.80;99.90;;;;;;4937746;28;20043;-81
2023/03/18 01:33:45;;;;;;;20.50;12.40;;;9.80;99.90;;;;;;4953927;28;20375;-81
2023/03/18 01:36:10;;;;;;;18.38;12.13;;;9.70;99.90;;;;;;4952679;28;20046;-80
2023/03/18 01:38:37;;;;;;;23.83;12.80;;;9.60;99.90;;;;;;4953406;28;20403;-81
2023/03/18 01:41:03;;;;;;;16.58;12.57;;;9.50;99.90;;;;;;4969868;28;20054;-81
2023/03/18 01:43:34;;;;;;;28.13;13.80;;;9.40;99.90;;;;;;4952881;28;20058;-81
2023/03/18 01:46:21;;;;;;;19.17;14.20;;;9.30;99.90;;;;;;4938210;28;20077;-81
2023/03/18 01:48:48;;;;;;;25.75;15.07;;;9.20;99.90;;;;;;4953646;28;20038;-81
2023/03/18 01:51:14;;;;;;;23.20;15.07;;;9.20;99.90;;;;;;4951743;28;20091;-82
2023/03/18 01:53:44;;;;;;;26.17;16.15;;;9.20;99.90;;;;;;4969660;28;20085;-81
2023/03/18 01:56:11;;;;;;;28.85;16.92;;;9.10;99.90;;;;;;4936388;28;20054;-81
2023/03/18 01:58:41;;;;;;;27.33;17.50;;;9.10;99.90;;;;;;4969976;28;20187;-82
2023/03/18 02:01:17;;;;;;;24.85;17.90;;;9.10;99.90;;;;;;4969032;28;20051;-82
2023/03/18 02:03:44;;;;;;;30.50;18.20;;;9.10;99.90;;;;;;4936755;28;20082;-82
2023/03/18 02:06:11;;;;;;;30.70;20.13;;;9.10;99.90;;;;;;4951907;28;20138;-82
2023/03/18 02:08:39;;;;;;;32.22;19.73;;;9.10;99.90;;;;;;4953428;28;20050;-82
2023/03/18 02:11:06;;;;;;;26.92;20.42;;;9.10;99.90;;;;;;4936006;28;20380;-82
2023/03/18 02:13:36;;;;;;;32.88;20.45;;;9.20;99.90;;;;;;4937462;28;20438;-82
2023/03/18 02:16:06;;;;;;;27.95;20.52;;;9.20;99.90;;;;;;4936374;28;20208;-82
2023/03/18 02:18:40;;;;;;;29.63;21.08;;;9.30;99.90;;;;;;4952675;28;20117;-82
2023/03/18 02:21:14;;;;;;;30.88;22.05;;;9.20;99.90;;;;;;4955549;28;20417;-82
2023/03/18 02:23:51;;;;;;;30.77;22.13;;;9.20;99.90;;;;;;4972133;28;20057;-82
2023/03/18 02:26:53;;;;;;;35.55;22.88;;;9.20;99.90;;;;;;4971839;28;20047;-82
2023/03/18 02:29:20;;;;;;;29.27;21.70;;;9.30;99.90;;;;;;4956132;28;20054;-82
2023/03/18 02:31:47;;;;;;;35.70;23.67;;;9.30;99.90;;;;;;4954641;28;20050;-83
2023/03/18 02:34:14;;;;;;;31.77;22.25;;;9.40;99.90;;;;;;4956371;28;20049;-82
2023/03/18 02:36:41;;;;;;;31.80;23.85;;;9.40;99.90;;;;;;4970950;28;20046;-82
2023/03/18 02:39:12;;;;;;;33.40;23.05;;;9.40;99.90;;;;;;4972176;28;20408;-82
2023/03/18 02:41:38;;;;;;;33.92;23.35;;;9.40;99.90;;;;;;4972320;28;20046;-83
2023/03/18 02:44:04;;;;;;;34.88;24.73;;;9.40;99.90;;;;;;4971949;28;20377;-82
2023/03/18 02:46:34;;;;;;;36.55;25.83;;;9.40;99.90;;;;;;4955722;28;20181;-82
2023/03/18 02:49:01;;;;;;;34.97;24.52;;;9.30;99.90;;;;;;4972951;28;20133;-82
2023/03/18 02:51:28;;;;;;;37.33;25.17;;;9.30;99.90;;;;;;4955732;28;20443;-82
2023/03/18 02:54:00;;;;;;;32.72;25.35;;;9.30;99.90;;;;;;4954952;28;20081;-82
2023/03/18 02:56:26;;;;;;;34.05;26.52;;;9.30;99.90;;;;;;4955996;28;20046;-82
2023/03/18 02:58:51;;;;;;;36.13;26.00;;;9.20;99.90;;;;;;4955801;28;20203;-82
2023/03/18 03:01:18;;;;;;;39.53;26.83;;;9.20;99.90;;;;;;4955281;28;20038;-82
2023/03/18 03:03:44;;;;;;;39.25;29.27;;;9.20;99.90;;;;;;4971446;28;20082;-82
2023/03/18 03:06:11;;;;;;;37.67;27.90;;;9.20;99.90;;;;;;4954791;28;20357;-82
2023/03/18 03:08:37;;;;;;;40.40;28.83;;;9.10;99.90;;;;;;4971104;28;20053;-82
2023/03/18 03:11:04;;;;;;;49.20;39.60;;;9.10;99.90;;;;;;4955636;28;20405;-82
2023/03/18 03:13:30;;;;;;;75.22;58.50;;;9.00;99.90;;;;;;4971337;28;20536;-82
2023/03/18 03:15:56;;;;;;;76.97;59.88;;;9.00;99.90;;;;;;4955058;28;20047;-82
2023/03/18 03:18:22;;;;;;;51.45;39.45;;;9.00;99.90;;;;;;4955614;28;20047;-82
2023/03/18 03:20:49;;;;;;;53.28;38.33;;;9.00;99.90;;;;;;4935304;28;20076;-82
2023/03/18 03:23:16;;;;;;;46.03;32.40;;;8.90;99.90;;;;;;4948328;28;20042;-83
2023/03/18 03:25:43;;;;;;;43.65;32.80;;;8.90;99.90;;;;;;4971721;28;20513;-82
2023/03/18 03:28:10;;;;;;;47.30;32.38;;;9.00;99.90;;;;;;4954032;28;20201;-82
2023/03/18 03:30:37;;;;;;;45.03;31.20;;;8.90;99.90;;;;;;4971433;28;20050;-82
2023/03/18 03:33:03;;;;;;;42.13;31.27;;;8.90;99.90;;;;;;4964922;28;20051;-82
2023/03/18 03:35:30;;;;;;;42.65;31.17;;;8.90;99.90;;;;;;4960013;28;20343;-83
2023/03/18 03:37:55;;;;;;;43.17;29.42;;;8.90;99.90;;;;;;4945545;28;20039;-82
2023/03/18 03:40:21;;;;;;;44.33;30.95;;;8.80;99.90;;;;;;4959969;28;20371;-82
2023/03/18 03:42:48;;;;;;;42.25;32.70;;;8.80;99.90;;;;;;4960753;28;20042;-82
2023/03/18 03:45:15;;;;;;;38.63;31.42;;;8.80;99.90;;;;;;4940051;28;20051;-82
2023/03/18 03:47:42;;;;;;;46.22;32.20;;;8.80;99.90;;;;;;4952027;28;20046;-82
2023/03/18 03:50:09;;;;;;;51.53;33.58;;;8.70;99.90;;;;;;4933694;28;20042;-82
2023/03/18 03:52:36;;;;;;;45.30;31.45;;;8.80;99.90;;;;;;4935974;28;20055;-82
2023/03/18 03:55:02;;;;;;;43.85;32.90;;;8.70;99.90;;;;;;4951351;28;20062;-83
2023/03/18 03:57:29;;;;;;;42.25;32.20;;;8.70;99.90;;;;;;4951684;28;20047;-82
2023/03/18 03:59:55;;;;;;;43.55;30.73;;;8.80;99.90;;;;;;4951557;28;20074;-82
2023/03/18 04:02:22;;;;;;;50.47;36.45;;;8.80;99.90;;;;;;4951390;28;20058;-82
2023/03/18 04:04:49;;;;;;;57.17;44.22;;;8.70;99.90;;;;;;4950990;28;20498;-82
2023/03/18 04:07:15;;;;;;;50.25;37.15;;;8.70;99.90;;;;;;4950706;28;20506;-82
2023/03/18 04:09:41;;;;;;;47.88;32.95;;;8.70;99.90;;;;;;4951171;28;20565;-82
2023/03/18 04:12:07;;;;;;;44.55;33.03;;;8.80;99.90;;;;;;4951056;28;20137;-82
2023/03/18 04:14:33;;;;;;;50.08;32.42;;;8.80;99.90;;;;;;4951492;28;20089;-82
2023/03/18 04:16:59;;;;;;;46.75;33.25;;;8.80;99.90;;;;;;4934993;28;20086;-82
2023/03/18 04:19:26;;;;;;;47.33;33.75;;;8.80;99.90;;;;;;4951176;28;20293;-82
2023/03/18 04:21:53;;;;;;;45.67;32.22;;;8.80;99.90;;;;;;4934517;28;20475;-82
2023/03/18 04:24:20;;;;;;;45.85;31.42;;;8.80;99.90;;;;;;4950450;28;20561;-82
2023/03/18 04:26:46;;;;;;;48.65;31.92;;;8.70;99.90;;;;;;4935394;28;20039;-82
2023/03/18 04:29:11;;;;;;;49.67;32.00;;;8.70;99.90;;;;;;4951369;28;20061;-82
2023/03/18 04:31:37;;;;;;;47.45;32.08;;;8.70;99.90;;;;;;4950803;28;20051;-83
2023/03/18 04:34:03;;;;;;;54.28;34.60;;;8.60;99.90;;;;;;4967472;28;20491;-83
2023/03/18 04:36:29;;;;;;;48.65;33.65;;;8.60;99.90;;;;;;4950226;28;20039;-83
2023/03/18 04:38:55;;;;;;;48.47;31.40;;;8.60;99.90;;;;;;4951067;28;20093;-82
2023/03/18 04:41:22;;;;;;;43.88;33.08;;;8.60;99.90;;;;;;4970803;28;20051;-82
2023/03/18 04:43:48;;;;;;;47.30;33.20;;;8.70;99.90;;;;;;4938628;28;20051;-82
2023/03/18 04:46:14;;;;;;;49.45;32.83;;;8.60;99.90;;;;;;4970012;28;20105;-82
2023/03/18 04:48:40;;;;;;;45.17;32.53;;;8.60;99.90;;;;;;4938613;28;20043;-83
2023/03/18 04:51:08;;;;;;;48.70;33.10;;;8.60;99.90;;;;;;4969894;28;20053;-82
2023/03/18 04:53:35;;;;;;;49.10;32.42;;;8.60;99.90;;;;;;4953595;28;20505;-82
2023/03/18 04:56:01;;;;;;;48.03;32.45;;;8.60;99.90;;;;;;4938424;28;20082;-82
2023/03/18 04:58:27;;;;;;;46.80;33.25;;;8.50;99.90;;;;;;4954988;28;20054;-82
2023/03/18 05:00:53;;;;;;;45.72;32.33;;;8.60;99.90;;;;;;4969361;28;20098;-83
2023/03/18 05:03:19;;;;;;;45.67;31.45;;;8.50;99.90;;;;;;4954633;28;20047;-82
2023/03/18 05:05:45;;;;;;;48.85;31.33;;;8.50;99.90;;;;;;4953285;28;20053;-82
2023/03/18 05:08:11;;;;;;;45.45;31.17;;;8.60;99.90;;;;;;4953650;28;20117;-82
2023/03/18 05:10:39;;;;;;;49.53;31.52;;;8.50;99.90;;;;;;4954293;28;20057;-82
2023/03/18 05:13:05;;;;;;;42.03;30.52;;;8.50;99.90;;;;;;4969819;28;20146;-82
2023/03/18 05:15:32;;;;;;;48.58;31.88;;;8.50;99.90;;;;;;4938884;28;20113;-83
2023/03/18 05:17:58;;;;;;;50.63;34.45;;;8.60;99.90;;;;;;4938543;28;20234;-82
2023/03/18 05:20:24;;;;;;;56.88;36.72;;;8.60;99.90;;;;;;4952811;28;20125;-82
2023/03/18 05:22:49;;;;;;;62.28;45.80;;;8.60;99.90;;;;;;4953905;28;20138;-82
2023/03/18 05:25:15;;;;;;;89.28;66.00;;;8.60;99.90;;;;;;4937830;28;20046;-82
2023/03/18 05:27:41;;;;;;;111.60;79.60;;;8.70;99.90;;;;;;4953760;28;20047;-82
2023/03/18 05:30:09;;;;;;;112.88;79.25;;;8.70;99.90;;;;;;4937610;28;20454;-82
2023/03/18 05:32:35;;;;;;;99.18;73.30;;;8.70;99.90;;;;;;4937973;28;20043;-82
2023/03/18 05:35:02;;;;;;;104.45;71.78;;;8.70;99.90;;;;;;4968687;28;20050;-83
2023/03/18 05:37:28;;;;;;;87.30;62.55;;;8.70;99.90;;;;;;4938672;28;20117;-82
2023/03/18 05:39:54;;;;;;;77.15;55.92;;;8.70;99.90;;;;;;4970266;28;20145;-82
2023/03/18 05:42:19;;;;;;;54.25;39.08;;;8.70;99.90;;;;;;4937497;28;20051;-82
2023/03/18 05:44:45;;;;;;;58.92;41.67;;;8.70;99.90;;;;;;4970245;28;20086;-82
2023/03/18 05:47:11;;;;;;;52.55;36.90;;;8.80;99.90;;;;;;4969407;28;20050;-82
2023/03/18 05:49:37;;;;;;;52.72;35.67;;;8.80;99.90;;;;;;4969762;28;20061;-82
2023/03/18 05:52:03;;;;;;;53.03;36.22;;;8.80;99.90;;;;;;4936598;28;20050;-82
2023/03/18 05:54:28;;;;;;;54.80;32.45;;;8.80;99.90;;;;;;4954260;28;20046;-82
2023/03/18 05:56:54;;;;;;;48.03;29.73;;;8.90;99.90;;;;;;4953192;28;20039;-82
2023/03/18 05:59:22;;;;;;;51.53;30.35;;;8.90;99.90;;;;;;4969586;28;20495;-82
2023/03/18 06:01:49;;;;;;;51.45;31.05;;;8.90;99.90;;;;;;4953870;28;20137;-82
2023/03/18 06:04:18;;;;;;;48.28;29.90;;;8.80;99.90;;;;;;4952793;28;20043;-82
2023/03/18 06:06:44;;;;;;;51.90;31.98;;;8.80;99.90;;;;;;4952927;28;20078;-82
2023/03/18 06:09:12;;;;;;;58.13;33.25;;;8.80;99.90;;;;;;4936762;28;20467;-82
2023/03/18 06:11:39;;;;;;;60.67;33.40;;;8.80;99.90;;;;;;4937514;28;20042;-82
2023/03/18 06:14:06;;;;;;;53.38;31.60;;;8.80;99.90;;;;;;4971272;28;20114;-83
2023/03/18 06:16:32;;;;;;;67.40;35.40;;;8.80;99.90;;;;;;4953019;28;20050;-82
2023/03/18 06:18:59;;;;;;;58.78;34.75;;;8.90;99.90;;;;;;4953717;28;20047;-82
2023/03/18 06:21:25;;;;;;;58.80;34.03;;;8.90;99.90;;;;;;4952157;28;20035;-82
2023/03/18 06:23:51;;;;;;;58.90;34.17;;;8.90;99.90;;;;;;4952945;28;20485;-83
2023/03/18 06:26:17;;;;;;;62.92;34.15;;;8.90;99.90;;;;;;4953022;28;20490;-83
2023/03/18 06:28:44;;;;;;;56.95;34.28;;;9.00;99.90;;;;;;4953663;28;20121;-82
2023/03/18 06:31:10;;;;;;;63.38;35.47;;;9.00;99.90;;;;;;4941450;28;20125;-82
2023/03/18 06:33:37;;;;;;;64.57;34.90;;;9.00;99.90;;;;;;4961989;28;20181;-82
2023/03/18 06:36:03;;;;;;;64.13;35.30;;;9.10;99.90;;;;;;4944782;28;20517;-82
2023/03/18 06:38:30;;;;;;;65.95;35.40;;;9.10;99.90;;;;;;4962493;28;20046;-82
2023/03/18 06:40:56;;;;;;;60.20;34.47;;;9.10;99.90;;;;;;4945487;28;20133;-82
2023/03/18 06:43:21;;;;;;;57.83;35.45;;;9.20;99.90;;;;;;4960933;28;20098;-83
2023/03/18 06:45:47;;;;;;;65.03;35.28;;;9.20;99.90;;;;;;4943823;28;20042;-81
2023/03/18 06:48:13;;;;;;;56.63;34.75;;;9.20;99.90;;;;;;4968512;28;20149;-81
2023/03/18 06:50:41;;;;;;;61.13;35.20;;;9.30;99.90;;;;;;4947729;28;20046;-81
2023/03/18 06:53:07;;;;;;;59.70;36.13;;;9.30;99.90;;;;;;4962914;28;20042;-81
2023/03/18 06:55:33;;;;;;;60.08;36.10;;;9.40;99.90;;;;;;4959947;28;20061;-81
2023/03/18 06:57:59;;;;;;;53.70;34.08;;;9.40;99.90;;;;;;4961075;28;20050;-81
2023/03/18 07:00:25;;;;;;;53.25;35.08;;;9.40;99.90;;;;;;4945215;28;20096;-82
2023/03/18 07:02:51;;;;;;;53.25;34.10;;;9.40;99.90;;;;;;4959808;28;20039;-81
2023/03/18 07:05:19;;;;;;;52.45;34.10;;;9.50;99.90;;;;;;4944156;28;20045;-81
2023/03/18 07:07:45;;;;;;;54.72;34.67;;;9.50;99.90;;;;;;4961106;28;20105;-81
2023/03/18 07:10:21;;;;;;;50.55;33.17;;;9.60;99.90;;;;;;4944136;28;20069;-81
2023/03/18 07:12:49;;;;;;;50.40;33.42;;;9.60;99.90;;;;;;4959235;28;20050;-81
2023/03/18 07:15:15;;;;;;;56.97;35.75;;;9.70;99.90;;;;;;4961094;28;20181;-81
2023/03/18 07:17:41;;;;;;;80.78;54.13;;;9.70;99.90;;;;;;4945049;28;20379;-81
2023/03/18 07:20:09;;;;;;;111.35;81.80;;;9.80;99.90;;;;;;4948425;28;20130;-82
2023/03/18 07:22:36;;;;;;;121.03;87.57;;;9.80;99.90;;;;;;4954541;28;20038;-82
2023/03/18 07:25:02;;;;;;;121.63;84.55;;;9.90;99.90;;;;;;4943792;28;20545;-82
2023/03/18 07:27:28;;;;;;;103.47;73.82;;;10.00;99.90;;;;;;4939602;28;20039;-82
2023/03/18 07:29:55;;;;;;;92.18;63.85;;;10.10;99.90;;;;;;4935906;28;20058;-81
2023/03/18 07:32:22;;;;;;;79.95;54.75;;;10.10;99.90;;;;;;4936682;28;20054;-81
2023/03/18 07:34:48;;;;;;;73.85;51.45;;;10.10;99.90;;;;;;4934841;28;20503;-81
2023/03/18 07:37:14;;;;;;;76.88;52.00;;;10.10;99.90;;;;;;4934782;28;20047;-81
2023/03/18 07:39:42;;;;;;;58.47;42.08;;;10.20;99.90;;;;;;4935514;28;20586;-81
2023/03/18 07:42:08;;;;;;;49.03;34.17;;;10.30;99.90;;;;;;4934821;28;20134;-81
2023/03/18 07:44:35;;;;;;;43.78;31.85;;;10.50;99.90;;;;;;4942929;28;20050;-81
2023/03/18 07:47:02;;;;;;;43.97;29.98;;;10.60;99.90;;;;;;4954427;28;20043;-81
2023/03/18 07:49:28;;;;;;;44.58;30.23;;;10.70;99.90;;;;;;4971039;28;20525;-82
2023/03/18 07:51:55;;;;;;;41.42;28.80;;;10.80;99.90;;;;;;4969840;28;20043;-82
2023/03/18 07:54:22;;;;;;;45.22;28.90;;;10.80;99.90;;;;;;4971802;28;20137;-82
2023/03/18 07:56:48;;;;;;;43.45;27.83;;;10.90;99.90;;;;;;4953952;28;20038;-82
2023/03/18 07:59:14;;;;;;;44.30;29.48;;;10.90;99.90;;;;;;4948670;28;20078;-80
2023/03/18 08:01:40;;;;;;;40.70;28.45;;;11.00;99.90;;;;;;4950166;28;20058;-82
2023/03/18 08:04:06;;;;;;;42.78;29.98;;;11.00;99.90;;;;;;4952020;28;20055;-83
2023/03/18 08:06:33;;;;;;;38.80;28.25;;;11.10;99.90;;;;;;4945250;28;20125;-82
2023/03/18 08:08:59;;;;;;;39.88;27.75;;;11.20;99.90;;;;;;4959588;28;20064;-82
2023/03/18 08:11:25;;;;;;;44.55;28.38;;;11.20;99.90;;;;;;4944935;28;20053;-82
2023/03/18 08:13:50;;;;;;;42.05;29.27;;;11.20;99.90;;;;;;4946142;28;20046;-82
2023/03/18 08:16:17;;;;;;;41.70;28.25;;;11.30;99.90;;;;;;4962302;28;20038;-82
2023/03/18 08:18:43;;;;;;;40.20;28.20;;;11.30;99.90;;;;;;4948558;28;20689;-82
2023/03/18 08:21:09;;;;;;;46.15;29.65;;;11.30;99.90;;;;;;4941093;28;20039;-82
2023/03/18 08:23:35;;;;;;;41.08;29.02;;;11.30;99.90;;;;;;4954719;28;20053;-82
2023/03/18 08:26:02;;;;;;;39.63;27.55;;;11.40;99.90;;;;;;4948771;28;20090;-82
2023/03/18 08:28:28;;;;;;;38.53;28.58;;;11.40;99.90;;;;;;4955086;28;20503;-82
2023/03/18 08:30:56;;;;;;;37.25;27.50;;;11.50;99.90;;;;;;4956357;28;20084;-82
2023/03/18 08:33:24;;;;;;;42.85;28.88;;;11.50;99.90;;;;;;4973088;28;20049;-82
2023/03/18 08:35:50;;;;;;;41.90;30.80;;;11.50;99.90;;;;;;4957510;28;20418;-82
2023/03/18 08:38:17;;;;;;;39.90;29.38;;;11.60;99.90;;;;;;4973393;28;20498;-82
2023/03/18 08:40:42;;;;;;;39.70;32.30;;;11.50;99.90;;;;;;4958218;28;20097;-83
2023/03/18 08:43:08;;;;;;;46.58;36.20;;;11.50;99.90;;;;;;4957774;28;20458;-84
2023/03/18 08:45:35;;;;;;;41.50;32.75;;;11.50;99.90;;;;;;4955675;28;20046;-82
2023/03/18 08:48:01;;;;;;;46.72;33.47;;;11.60;99.90;;;;;;4939223;28;20085;-83
2023/03/18 08:50:28;;;;;;;38.00;27.55;;;11.60;99.90;;;;;;4953614;28;20051;-83
2023/03/18 08:52:56;;;;;;;36.33;28.88;;;11.60;99.90;;;;;;4954224;28;20138;-82
2023/03/18 08:55:26;;;;;;;41.88;27.30;;;11.60;99.90;;;;;;4971704;28;20121;-82
2023/03/18 08:57:53;;;;;;;46.08;32.65;;;11.60;99.90;;;;;;4954721;28;20070;-82
2023/03/18 09:00:20;;;;;;;46.03;35.08;;;11.60;99.90;;;;;;4953613;28;20054;-83
2023/03/18 09:02:46;;;;;;;41.67;31.55;;;11.70;99.90;;;;;;4954547;28;20042;-83
2023/03/18 09:05:12;;;;;;;45.30;29.83;;;11.70;99.90;;;;;;4936770;28;20053;-82
2023/03/18 09:07:38;;;;;;;36.60;27.08;;;11.70;99.90;;;;;;4954602;28;20137;-82
2023/03/18 09:10:05;;;;;;;35.20;25.50;;;11.70;99.90;;;;;;4938140;28;20549;-82
2023/03/18 09:12:30;;;;;;;37.90;25.17;;;11.70;99.90;;;;;;4953865;28;20414;-83
2023/03/18 09:14:56;;;;;;;37.58;26.73;;;11.70;99.90;;;;;;4954189;28;20058;-82
2023/03/18 09:17:22;;;;;;;38.95;25.33;;;11.70;99.90;;;;;;4938244;28;20047;-82
2023/03/18 09:19:48;;;;;;;38.50;27.15;;;11.70;99.90;;;;;;4963900;28;20148;-82
2023/03/18 09:22:14;;;;;;;37.60;29.17;;;11.60;99.90;;;;;;4956650;28;20464;-82
2023/03/18 09:24:40;;;;;;;41.97;29.70;;;11.60;99.90;;;;;;4956946;28;20141;-83
2023/03/18 09:27:06;;;;;;;40.70;30.27;;;11.60;99.90;;;;;;4971526;28;20125;-82
2023/03/18 09:29:31;;;;;;;41.78;27.70;;;11.70;99.90;;;;;;4973336;28;20134;-82
2023/03/18 09:31:57;;;;;;;41.10;26.80;;;11.70;99.90;;;;;;4957683;28;20039;-82
2023/03/18 09:34:23;;;;;;;33.60;25.33;;;11.80;99.90;;;;;;4972977;28;20054;-82
2023/03/18 09:36:50;;;;;;;38.92;27.38;;;12.00;99.90;;;;;;4971924;28;20058;-82
2023/03/18 09:39:18;;;;;;;33.83;26.27;;;12.10;99.90;;;;;;4957150;28;20129;-82
2023/03/18 09:42:22;;;;;;;37.45;27.38;;;12.30;99.90;;;;;;4972087;28;20065;-82
2023/03/18 09:45:01;;;;;;;36.78;26.88;;;12.40;99.90;;;;;;4956784;28;20053;-81
2023/03/18 09:47:52;;;;;;;39.70;26.48;;;12.50;99.90;;;;;;4971431;28;20596;-81
2023/03/18 09:50:30;;;;;;;31.63;25.15;;;12.70;99.90;;;;;;4936445;28;20043;-81
2023/03/18 09:53:13;;;;;;;35.97;25.20;;;12.70;99.90;;;;;;4969278;28;20571;-82
2023/03/18 09:55:45;;;;;;;33.63;25.10;;;12.80;99.90;;;;;;4936272;28;20047;-81
2023/03/18 09:58:23;;;;;;;34.83;25.63;;;12.90;99.90;;;;;;4953642;28;20050;-81
2023/03/18 10:00:52;;;;;;;33.30;25.15;;;13.00;99.90;;;;;;4969387;28;20047;-81
2023/03/18 10:03:31;;;;;;;35.30;25.42;;;13.10;99.90;;;;;;4952552;28;20526;-82
2023/03/18 10:06:15;;;;;;;36.05;24.88;;;13.30;99.90;;;;;;4952693;28;20424;-82
2023/03/18 10:08:59;;;;;;;36.15;25.48;;;13.50;99.90;;;;;;4952650;28;20070;-82
2023/03/18 10:11:28;;;;;;;;;;;13.60;99.90;;;;;;4937235;28;20059;-82
2023/03/18 10:14:25;;;;;;;31.15;24.52;;;13.70;99.90;;;;;;4937524;28;20072;-82
2023/03/18 10:16:57;;;;;;;30.13;24.33;;;13.80;99.90;;;;;;4936105;28;20388;-82
2023/03/18 10:19:23;;;;;;;35.53;25.05;;;13.90;99.90;;;;;;4944501;28;20050;-82
2023/03/18 10:22:17;;;;;;;32.30;23.17;;;14.00;99.90;;;;;;4955344;28;20406;-83
2023/03/18 10:24:46;;;;;;;31.10;24.25;;;14.20;99.90;;;;;;4971922;28;20058;-82
2023/03/18 10:27:34;;;;;;;36.08;24.30;;;14.40;99.90;;;;;;4971830;28;20050;-82
2023/03/18 10:30:37;;;;;;;30.15;22.58;;;14.50;99.90;;;;;;4955349;28;20081;-82
2023/03/18 10:33:22;;;;;;;26.75;22.77;;;14.50;99.90;;;;;;4971955;28;20089;-82
2023/03/18 10:36:03;;;;;;;28.00;21.15;;;14.40;99.90;;;;;;4955149;28;20050;-82
2023/03/18 10:38:32;;;;;;;32.88;23.20;;;14.50;99.90;;;;;;4954944;28;20057;-82
2023/03/18 10:40:58;;;;;;;31.85;22.63;;;14.50;99.90;;;;;;4956338;28;20127;-82
2023/03/18 10:43:28;;;;;;;30.10;21.52;;;14.60;99.90;;;;;;4955063;28;20061;-82
2023/03/18 10:46:00;;;;;;;27.85;20.75;;;14.60;99.90;;;;;;4971906;28;20062;-82
2023/03/18 10:48:29;;;;;;;27.45;21.67;;;14.50;99.90;;;;;;4956035;28;20516;-82
2023/03/18 10:51:08;;;;;;;27.90;20.70;;;14.50;99.90;;;;;;4943829;28;20042;-82
2023/03/18 10:53:39;;;;;;;31.45;22.10;;;14.60;99.90;;;;;;4968744;28;20538;-82
2023/03/18 10:56:09;;;;;;;29.13;23.27;;;14.60;99.90;;;;;;4951987;28;20043;-82
2023/03/18 10:58:37;;;;;;;27.50;22.25;;;14.60;99.90;;;;;;4951954;28;20074;-81
2023/03/18 11:01:06;;;;;;;28.13;21.58;;;14.50;99.90;;;;;;4936040;28;20046;-81
2023/03/18 11:03:35;;;;;;;28.38;20.70;;;14.60;99.90;;;;;;4968835;28;20055;-81
2023/03/18 11:06:03;;;;;;;26.27;19.15;;;14.70;99.90;;;;;;4935184;28;20442;-82
2023/03/18 11:08:38;;;;;;;23.80;17.05;;;14.70;99.90;;;;;;4936678;28;20078;-82
2023/03/18 11:11:16;;;;;;;23.90;17.30;;;14.90;99.90;;;;;;4936331;28;20134;-81
2023/03/18 11:13:47;;;;;;;23.98;18.50;;;15.00;99.90;;;;;;4935857;28;20097;-82
2023/03/18 11:16:22;;;;;;;24.13;19.20;;;15.10;99.90;;;;;;4936124;28;20077;-82
2023/03/18 11:18:50;;;;;;;27.05;19.17;;;15.20;99.90;;;;;;4951477;28;20122;-81
2023/03/18 11:21:16;;;;;;;24.15;18.38;;;15.30;99.90;;;;;;4934705;28;20047;-82
2023/03/18 11:24:19;;;;;;;24.92;19.48;;;15.30;99.90;;;;;;4968245;28;20078;-82
2023/03/18 11:26:53;;;;;;;26.10;18.05;;;15.30;99.90;;;;;;4935401;28;20050;-82
2023/03/18 11:29:25;;;;;;;23.95;18.30;;;15.20;99.90;;;;;;4951712;28;20042;-82
2023/03/18 11:31:57;;;;;;;25.42;19.05;;;15.00;99.90;;;;;;4951758;28;20058;-81
2023/03/18 11:34:24;;;;;;;27.23;18.80;;;14.90;99.90;;;;;;4935416;28;20051;-81
2023/03/18 11:36:57;;;;;;;24.30;17.50;;;15.00;99.90;;;;;;4935255;28;20333;-81
2023/03/18 11:39:23;;;;;;;;;;;15.00;99.90;;;;;;4952332;28;20142;-82
2023/03/18 11:41:51;;;;;;;23.83;17.00;;;15.10;99.90;;;;;;4935233;28;19926;-82
2023/03/18 11:44:23;;;;;;;20.50;16.45;;;15.20;99.90;;;;;;4935606;28;20061;-82
2023/03/18 11:47:01;;;;;;;23.65;17.25;;;15.10;99.90;;;;;;4950813;28;20046;-82
2023/03/18 11:49:28;;;;;;;22.90;16.83;;;15.00;99.90;;;;;;4951392;28;20510;-82
2023/03/18 11:52:01;;;;;;;23.80;16.65;;;14.80;99.90;;;;;;4934292;28;20042;-81
2023/03/18 11:54:39;;;;;;;22.92;16.40;;;14.70;99.90;;;;;;4951175;28;20517;-82
2023/03/18 11:57:16;;;;;;;23.98;16.42;;;14.60;99.90;;;;;;4935609;28;20134;-82
2023/03/18 11:59:57;;;;;;;22.65;16.92;;;14.50;99.90;;;;;;4951826;28;20039;-82
2023/03/18 12:02:31;;;;;;;25.55;17.08;;;14.40;99.90;;;;;;4950864;28;20042;-82
2023/03/18 12:05:20;;;;;;;22.50;17.15;;;14.30;99.90;;;;;;4934597;28;20051;-82
2023/03/18 12:08:06;;;;;;;24.25;17.80;;;14.20;99.90;;;;;;4951909;28;20051;-82
2023/03/18 12:10:37;;;;;;;25.13;16.65;;;14.30;99.90;;;;;;4967487;28;20051;-82
2023/03/18 12:13:13;;;;;;;23.40;16.42;;;14.30;99.90;;;;;;4951253;28;20051;-82
2023/03/18 12:16:05;;;;;;;21.20;14.38;;;14.60;99.90;;;;;;4950499;28;20050;-81
2023/03/18 12:18:43;;;;;;;23.63;14.50;;;15.00;99.90;;;;;;4951943;28;20553;-82
2023/03/18 12:21:39;;;;;;;19.20;13.70;;;15.40;99.90;;;;;;4950881;28;20054;-82
2023/03/18 12:24:07;;;;;;;17.52;13.30;;;15.60;99.90;;;;;;4934826;28;20137;-82
2023/03/18 12:26:43;;;;;;;18.83;12.27;;;15.70;99.90;;;;;;4950826;28;20057;-81
2023/03/18 12:29:27;;;;;;;18.15;12.85;;;15.80;99.90;;;;;;4950554;28;20135;-82
2023/03/18 12:32:08;;;;;;;22.10;13.82;;;15.80;99.90;;;;;;4934995;28;20064;-81
2023/03/18 12:34:43;;;;;;;17.50;13.35;;;15.60;99.90;;;;;;4935217;28;20087;-81
2023/03/18 12:37:18;;;;;;;23.55;14.68;;;15.40;99.90;;;;;;4934203;28;20046;-81
2023/03/18 12:39:54;;;;;;;20.65;12.38;;;15.40;99.90;;;;;;4935572;28;20070;-82
2023/03/18 12:42:48;;;;;;;17.77;12.93;;;15.50;99.90;;;;;;4935252;28;20415;-81